Time;durP1;ratioP1;P1;durP2;ratioP2;P2;SDS_P1;SDS_P2;PMS_P1;PMS_P2;Temp;Humidity;BMP_temperature;BMP_pressure;BME280_temperature;BME280_humidity;BME280_pressure;Samples;Min_cycle;Max_cycle;Signal;HPM_P1;HPM_P2
2021/04/19 00:00:27;;;;;;;3.90;3.60;;;28.70;31.60;;;;;;5155949;27;20442;-37
2021/04/19 00:02:57;;;;;;;4.00;3.60;;;28.70;32.20;;;;;;5167174;27;20474;-39
2021/04/19 00:05:28;;;;;;;4.43;3.93;;;28.70;32.60;;;;;;5164273;27;20500;-40
2021/04/19 00:08:00;;;;;;;3.50;3.20;;;28.70;31.20;;;;;;5157051;27;20458;-37
2021/04/19 00:10:30;;;;;;;4.03;3.83;;;28.60;32.40;;;;;;5166627;27;20444;-39
2021/04/19 00:13:00;;;;;;;3.50;3.20;;;28.60;32.80;;;;;;5164894;27;20508;-38
2021/04/19 00:15:31;;;;;;;4.97;3.13;;;28.50;31.40;;;;;;5160604;27;20452;-40
2021/04/19 00:18:02;;;;;;;3.70;3.40;;;28.40;32.20;;;;;;5152369;27;20929;-39
2021/04/19 00:20:33;;;;;;;3.20;3.00;;;28.30;32.60;;;;;;5156254;27;20451;-37
2021/04/19 00:23:04;;;;;;;3.40;3.20;;;28.20;32.40;;;;;;5165029;27;20490;-39
2021/04/19 00:25:34;;;;;;;2.93;2.60;;;28.20;32.10;;;;;;5160141;27;20440;-37
2021/04/19 00:28:04;;;;;;;3.77;3.50;;;28.20;32.30;;;;;;5154034;27;20452;-38
2021/04/19 00:30:35;;;;;;;3.30;3.10;;;28.10;32.70;;;;;;5155800;27;20460;-36
2021/04/19 00:33:06;;;;;;;3.53;3.23;;;28.10;32.90;;;;;;5162312;27;20468;-38
2021/04/19 00:35:39;;;;;;;3.77;3.47;;;28.00;33.30;;;;;;5164097;27;20472;-39
2021/04/19 00:38:09;;;;;;;3.80;3.40;;;27.90;33.70;;;;;;5151690;27;20449;-38
2021/04/19 00:40:59;;;;;;;4.50;3.70;;;27.80;33.30;;;;;;5154685;27;20453;-38
2021/04/19 00:43:48;;;;;;;3.50;3.30;;;27.70;33.70;;;;;;5153301;27;20635;-39
2021/04/19 00:46:19;;;;;;;3.70;3.40;;;27.70;34.20;;;;;;5148264;27;20579;-38
2021/04/19 00:48:49;;;;;;;3.33;3.13;;;27.50;34.30;;;;;;5164190;27;20534;-39
2021/04/19 00:51:21;;;;;;;3.20;2.93;;;27.50;33.90;;;;;;5147351;27;20553;-37
2021/04/19 00:53:52;;;;;;;5.20;4.20;;;27.40;34.90;;;;;;5165697;27;20451;-38
2021/04/19 00:56:23;;;;;;;3.50;3.20;;;27.40;34.40;;;;;;5165156;27;20497;-38
2021/04/19 00:58:53;;;;;;;3.37;3.07;;;27.20;33.80;;;;;;5164594;27;20457;-37
2021/04/19 01:01:23;;;;;;;7.17;3.90;;;27.00;34.60;;;;;;5165290;27;20455;-39
2021/04/19 01:03:53;;;;;;;3.10;2.80;;;27.00;34.00;;;;;;5166305;27;20505;-38
2021/04/19 01:06:25;;;;;;;4.80;3.17;;;26.90;32.50;;;;;;5165512;27;20466;-40
2021/04/19 01:08:55;;;;;;;4.60;3.00;;;26.80;32.70;;;;;;5165183;27;20498;-39
2021/04/19 01:11:25;;;;;;;2.90;2.60;;;26.70;32.20;;;;;;5163043;27;20445;-39
2021/04/19 01:13:55;;;;;;;3.07;2.50;;;26.70;31.10;;;;;;5166241;27;20751;-39
2021/04/19 01:16:25;;;;;;;3.30;2.40;;;26.50;30.90;;;;;;5165673;27;20906;-38
2021/04/19 01:18:55;;;;;;;3.03;2.47;;;26.40;30.30;;;;;;5165586;27;20977;-36
2021/04/19 01:21:28;;;;;;;2.67;2.50;;;26.40;30.30;;;;;;5164993;27;20502;-40
2021/04/19 01:23:58;;;;;;;3.60;2.90;;;26.20;31.20;;;;;;5165455;27;20479;-39
2021/04/19 01:26:28;;;;;;;3.20;2.93;;;26.20;31.50;;;;;;5163808;27;20433;-37
2021/04/19 01:28:59;;;;;;;3.27;2.97;;;26.10;31.50;;;;;;5152257;27;20493;-36
2021/04/19 01:31:29;;;;;;;3.17;2.87;;;26.00;30.50;;;;;;5158448;27;20455;-39
2021/04/19 01:33:59;;;;;;;4.20;3.03;;;25.90;30.30;;;;;;5155316;27;20519;-39
2021/04/19 01:36:32;;;;;;;2.70;2.50;;;25.80;30.70;;;;;;5155953;27;20453;-40
2021/04/19 01:39:02;;;;;;;3.50;3.20;;;25.90;30.40;;;;;;5155115;27;20456;-40
2021/04/19 01:41:32;;;;;;;3.13;2.83;;;25.70;30.60;;;;;;5159133;27;20451;-39
2021/04/19 01:44:04;;;;;;;3.83;2.80;;;25.70;31.00;;;;;;5152042;27;20555;-40
2021/04/19 01:46:34;;;;;;;4.20;2.63;;;25.60;30.70;;;;;;5158193;27;20456;-38
2021/04/19 01:49:13;;;;;;;3.53;2.50;;;25.50;30.80;;;;;;5164870;27;20453;-40
2021/04/19 01:51:45;;;;;;;3.00;2.37;;;25.40;30.80;;;;;;5153036;27;20452;-39
2021/04/19 01:54:15;;;;;;;3.07;2.60;;;25.40;30.70;;;;;;5160750;27;20444;-37
2021/04/19 01:56:45;;;;;;;3.40;3.17;;;25.30;30.60;;;;;;5164555;27;20443;-38
2021/04/19 01:59:16;;;;;;;3.20;2.90;;;25.30;31.40;;;;;;5155518;27;20538;-37
2021/04/19 02:01:52;;;;;;;3.10;2.73;;;25.20;31.00;;;;;;5163850;27;20524;-40
2021/04/19 02:04:34;;;;;;;3.77;3.00;;;25.00;32.00;;;;;;5165009;27;20511;-39
2021/04/19 02:07:14;;;;;;;3.20;2.90;;;24.90;31.80;;;;;;5164811;27;20448;-37
2021/04/19 02:09:55;;;;;;;4.60;3.00;;;24.80;31.80;;;;;;5156809;27;20504;-38
2021/04/19 02:12:38;;;;;;;3.70;3.40;;;24.70;32.30;;;;;;5163554;27;20455;-39
2021/04/19 02:15:14;;;;;;;3.33;3.03;;;24.60;32.30;;;;;;5165637;27;20448;-36
2021/04/19 02:17:54;;;;;;;3.60;2.80;;;24.40;32.20;;;;;;5165369;27;20436;-39
2021/04/19 02:20:36;;;;;;;3.40;3.00;;;24.30;32.70;;;;;;5164380;27;20451;-39
2021/04/19 02:23:15;;;;;;;3.10;2.80;;;24.20;32.40;;;;;;5158134;27;20452;-39
2021/04/19 02:25:46;;;;;;;3.20;2.90;;;24.10;32.60;;;;;;5165002;27;20834;-39
2021/04/19 02:28:21;;;;;;;4.63;2.60;;;24.00;32.70;;;;;;5164338;27;20450;-39
2021/04/19 02:30:54;;;;;;;3.90;2.73;;;23.80;33.50;;;;;;5158534;27;20980;-40
2021/04/19 02:33:26;;;;;;;4.73;2.87;;;23.70;33.80;;;;;;5163521;27;20451;-38
2021/04/19 02:35:57;;;;;;;3.57;3.27;;;23.60;33.90;;;;;;5164296;27;20539;-37
2021/04/19 02:38:30;;;;;;;3.80;3.03;;;23.50;33.60;;;;;;5164379;27;20460;-39
2021/04/19 02:41:03;;;;;;;3.63;3.20;;;23.40;34.50;;;;;;5164451;27;20452;-38
2021/04/19 02:43:35;;;;;;;3.13;2.63;;;23.30;34.10;;;;;;5163189;27;20521;-38
2021/04/19 02:46:07;;;;;;;5.83;3.00;;;23.20;33.70;;;;;;5164411;27;20621;-39
2021/04/19 02:48:38;;;;;;;3.60;3.30;;;23.10;34.00;;;;;;5164902;27;20447;-39
2021/04/19 02:51:11;;;;;;;4.40;3.00;;;22.90;34.70;;;;;;5164410;27;20466;-39
2021/04/19 02:53:50;;;;;;;3.67;2.77;;;22.80;34.40;;;;;;5164120;27;20448;-38
2021/04/19 02:56:20;;;;;;;4.67;2.90;;;22.70;34.40;;;;;;5163710;27;20460;-38
2021/04/19 02:58:54;;;;;;;3.33;2.53;;;22.70;34.50;;;;;;5157397;27;20459;-38
2021/04/19 03:01:27;;;;;;;5.63;2.97;;;22.60;34.70;;;;;;5164001;27;20865;-37
2021/04/19 03:04:05;;;;;;;3.30;3.00;;;22.40;35.10;;;;;;5164659;27;20486;-39
2021/04/19 03:06:41;;;;;;;3.70;2.70;;;22.40;35.40;;;;;;5155315;27;20458;-39
2021/04/19 03:09:16;;;;;;;7.13;3.10;;;22.20;35.60;;;;;;5164088;27;20467;-37
2021/04/19 03:11:52;;;;;;;4.53;3.47;;;22.10;35.90;;;;;;5163004;27;20465;-37
2021/04/19 03:14:28;;;;;;;4.57;3.07;;;22.00;36.20;;;;;;5163547;27;20496;-38
2021/04/19 03:17:05;;;;;;;3.33;2.90;;;22.00;36.10;;;;;;5157895;27;20447;-37
2021/04/19 03:19:37;;;;;;;3.70;2.30;;;21.90;36.70;;;;;;5149563;27;20419;-38
2021/04/19 03:22:09;;;;;;;4.83;3.07;;;21.70;35.60;;;;;;5161026;27;20432;-37
2021/04/19 03:24:40;;;;;;;3.27;2.87;;;21.70;36.30;;;;;;5149165;27;20536;-37
2021/04/19 03:27:12;;;;;;;2.67;2.20;;;21.40;37.80;;;;;;5154437;27;20900;-35
2021/04/19 03:29:43;;;;;;;2.67;2.47;;;21.30;38.30;;;;;;5158162;27;20452;-36
2021/04/19 03:32:18;;;;;;;2.77;2.57;;;21.30;36.80;;;;;;5163896;27;20440;-38
2021/04/19 03:34:48;;;;;;;3.10;2.47;;;21.20;36.10;;;;;;5166015;27;20547;-37
2021/04/19 03:37:21;;;;;;;3.03;2.53;;;21.00;38.10;;;;;;5168546;27;20444;-33
2021/04/19 03:40:18;;;;;;;2.63;2.50;;;20.90;37.60;;;;;;5168756;27;20427;-37
2021/04/19 03:42:53;;;;;;;2.63;2.43;;;20.80;37.20;;;;;;5166327;27;20492;-38
2021/04/19 03:45:24;;;;;;;3.67;2.70;;;20.70;37.80;;;;;;5168143;27;21046;-37
2021/04/19 03:47:57;;;;;;;2.33;2.13;;;20.60;37.20;;;;;;5167950;27;20451;-38
2021/04/19 03:50:29;;;;;;;3.27;2.40;;;20.50;37.70;;;;;;5166032;27;20440;-37
2021/04/19 03:53:00;;;;;;;3.43;2.37;;;20.40;36.30;;;;;;5167733;27;20452;-35
2021/04/19 03:55:50;;;;;;;2.60;2.40;;;20.30;36.80;;;;;;5167635;27;20402;-38
2021/04/19 03:58:23;;;;;;;3.37;2.43;;;20.30;36.70;;;;;;5167219;27;20443;-38
2021/04/19 04:00:55;;;;;;;4.13;2.53;;;20.10;37.30;;;;;;5167792;27;20451;-38
2021/04/19 04:03:27;;;;;;;2.40;2.20;;;20.10;37.70;;;;;;5167635;27;20453;-39
2021/04/19 04:06:00;;;;;;;3.67;2.23;;;20.00;36.60;;;;;;5166947;27;20434;-39
2021/04/19 04:08:31;;;;;;;2.20;2.00;;;19.90;36.30;;;;;;5166788;27;20502;-37
2021/04/19 04:11:06;;;;;;;3.57;2.20;;;19.80;36.80;;;;;;5164439;27;20437;-36
2021/04/19 04:13:36;;;;;;;3.27;2.40;;;19.70;37.30;;;;;;5166408;27;20448;-39
2021/04/19 04:16:07;;;;;;;3.70;2.33;;;19.70;36.50;;;;;;5156505;27;20464;-34
2021/04/19 04:18:40;;;;;;;2.80;2.27;;;19.60;36.30;;;;;;5163093;27;20440;-38
2021/04/19 04:21:11;;;;;;;2.70;2.07;;;19.60;36.50;;;;;;5152477;27;20451;-33
2021/04/19 04:23:42;;;;;;;5.10;2.50;;;19.50;37.00;;;;;;5153370;27;20521;-37
2021/04/19 04:26:14;;;;;;;1.90;1.80;;;19.40;36.70;;;;;;5151488;27;20474;-36
2021/04/19 04:28:46;;;;;;;4.40;2.17;;;19.40;37.40;;;;;;5160857;27;20424;-33
2021/04/19 04:31:16;;;;;;;2.87;1.90;;;19.30;38.10;;;;;;5166706;27;20440;-35
2021/04/19 04:33:46;;;;;;;6.03;2.60;;;19.20;38.60;;;;;;5164441;27;20508;-35
2021/04/19 04:36:16;;;;;;;2.10;1.90;;;19.10;38.40;;;;;;5165893;27;20526;-35
2021/04/19 04:38:47;;;;;;;2.43;2.00;;;19.10;38.90;;;;;;5167008;27;20448;-36
2021/04/19 04:41:19;;;;;;;4.07;1.80;;;19.00;39.80;;;;;;5166589;27;20447;-36
2021/04/19 04:43:52;;;;;;;4.70;2.23;;;18.70;39.80;;;;;;5166633;27;20475;-38
2021/04/19 04:46:29;;;;;;;2.07;1.93;;;18.70;40.80;;;;;;5181036;27;20468;-36
2021/04/19 04:49:05;;;;;;;3.40;2.23;;;18.50;42.50;;;;;;5167182;27;20802;-38
2021/04/19 04:51:37;;;;;;;7.53;2.40;;;18.50;40.30;;;;;;5166839;27;20443;-38
2021/04/19 04:54:13;;;;;;;3.63;2.40;;;18.40;41.10;;;;;;5164948;27;20535;-36
2021/04/19 04:56:49;;;;;;;2.80;1.80;;;18.40;41.10;;;;;;5161972;27;20433;-38
2021/04/19 04:59:20;;;;;;;4.53;2.00;;;18.20;44.40;;;;;;5165315;27;20447;-37
2021/04/19 05:01:52;;;;;;;3.20;2.37;;;18.10;44.80;;;;;;5163485;27;20430;-37
2021/04/19 05:04:23;;;;;;;3.30;2.30;;;18.00;43.90;;;;;;5166704;27;20549;-36
2021/04/19 05:06:54;;;;;;;2.83;2.20;;;17.90;43.00;;;;;;5165893;27;20447;-35
2021/04/19 05:09:24;;;;;;;3.03;2.43;;;17.90;42.50;;;;;;5146534;27;20427;-36
2021/04/19 05:11:55;;;;;;;2.33;2.13;;;17.70;43.80;;;;;;5153211;27;20501;-35
2021/04/19 05:14:28;;;;;;;4.23;2.40;;;17.60;45.60;;;;;;5166233;27;20419;-32
2021/04/19 05:16:58;;;;;;;3.27;2.20;;;17.40;45.30;;;;;;5165695;27;20434;-36
2021/04/19 05:19:28;;;;;;;3.30;2.00;;;17.30;45.30;;;;;;5166166;27;20442;-38
2021/04/19 05:21:59;;;;;;;2.57;2.37;;;17.20;47.00;;;;;;5165707;27;20448;-34
2021/04/19 05:24:29;;;;;;;2.87;2.23;;;17.00;48.30;;;;;;5157787;27;20483;-37
2021/04/19 05:27:00;;;;;;;3.00;2.70;;;16.90;49.20;;;;;;5164773;27;20455;-31
2021/04/19 05:29:31;;;;;;;2.17;2.07;;;16.80;47.50;;;;;;5165314;27;20448;-36
2021/04/19 05:32:02;;;;;;;3.50;2.70;;;16.80;47.40;;;;;;5163395;27;20519;-38
2021/04/19 05:34:33;;;;;;;3.47;2.40;;;16.70;47.60;;;;;;5165067;27;20436;-36
2021/04/19 05:37:05;;;;;;;2.73;2.53;;;16.60;48.20;;;;;;5155584;27;20914;-35
2021/04/19 05:39:36;;;;;;;2.83;2.10;;;16.50;49.00;;;;;;5163722;27;20477;-35
2021/04/19 05:42:10;;;;;;;4.50;2.67;;;16.50;48.00;;;;;;5150059;27;20504;-37
2021/04/19 05:44:40;;;;;;;3.10;2.60;;;16.50;47.30;;;;;;5165670;27;20986;-37
2021/04/19 05:47:10;;;;;;;4.03;2.27;;;16.50;47.40;;;;;;5165879;27;20433;-38
2021/04/19 05:49:41;;;;;;;2.40;2.20;;;16.50;47.30;;;;;;5165890;27;20456;-36
2021/04/19 05:52:12;;;;;;;4.60;2.83;;;16.40;48.30;;;;;;5165632;27;20481;-37
2021/04/19 05:54:43;;;;;;;2.37;2.17;;;16.40;49.60;;;;;;5163516;27;20516;-37
2021/04/19 05:57:27;;;;;;;2.33;2.13;;;16.30;50.20;;;;;;5161404;27;20449;-37
2021/04/19 06:00:05;;;;;;;4.73;2.43;;;16.20;49.70;;;;;;5161069;27;20444;-35
2021/04/19 06:02:44;;;;;;;5.00;2.47;;;16.00;50.20;;;;;;5164769;27;20446;-37
2021/04/19 06:05:24;;;;;;;2.63;2.43;;;15.90;50.00;;;;;;5164727;27;20551;-37
2021/04/19 06:08:02;;;;;;;3.00;2.70;;;15.90;52.10;;;;;;5165087;27;20455;-30
2021/04/19 06:10:38;;;;;;;2.87;2.40;;;15.80;53.00;;;;;;5152948;27;20459;-37
2021/04/19 06:13:13;;;;;;;2.90;2.70;;;15.80;52.90;;;;;;5164515;27;20426;-35
2021/04/19 06:15:44;;;;;;;4.20;2.80;;;15.70;52.90;;;;;;5164779;27;20468;-36
2021/04/19 06:18:14;;;;;;;4.10;2.60;;;15.70;55.00;;;;;;5165215;27;20563;-38
2021/04/19 06:20:45;;;;;;;3.57;2.77;;;15.60;54.00;;;;;;5152293;27;20455;-34
2021/04/19 06:23:15;;;;;;;2.70;2.50;;;15.50;52.30;;;;;;5164104;27;20460;-37
2021/04/19 06:25:46;;;;;;;3.00;2.70;;;15.40;52.20;;;;;;5165051;27;20479;-33
2021/04/19 06:28:17;;;;;;;3.60;2.47;;;15.30;52.90;;;;;;5163905;27;20452;-37
2021/04/19 06:31:09;;;;;;;5.10;3.33;;;15.20;53.10;;;;;;5164923;27;20441;-37
2021/04/19 06:33:39;;;;;;;2.80;2.57;;;15.20;54.20;;;;;;5164808;27;20447;-36
2021/04/19 06:36:11;;;;;;;3.70;2.63;;;15.10;54.20;;;;;;5154606;27;20457;-32
2021/04/19 06:38:41;;;;;;;3.50;2.70;;;15.10;56.90;;;;;;5155961;27;20532;-33
2021/04/19 06:41:11;;;;;;;3.23;2.53;;;15.00;54.10;;;;;;5165297;27;20927;-33
2021/04/19 06:43:43;;;;;;;3.63;2.77;;;15.00;53.60;;;;;;5162423;27;20463;-34
2021/04/19 06:46:14;;;;;;;2.80;2.60;;;14.90;55.40;;;;;;5164005;27;20480;-37
2021/04/19 06:48:45;;;;;;;3.90;2.90;;;14.90;56.30;;;;;;5165319;27;20452;-35
2021/04/19 06:51:15;;;;;;;3.30;2.97;;;14.80;54.70;;;;;;5164689;27;20456;-37
2021/04/19 06:53:45;;;;;;;3.50;2.77;;;14.70;56.40;;;;;;5162961;27;20448;-37
2021/04/19 06:56:16;;;;;;;4.37;2.43;;;14.70;59.30;;;;;;5164330;27;20796;-36
2021/04/19 06:58:48;;;;;;;3.70;2.80;;;14.70;58.60;;;;;;5164183;27;20444;-31
2021/04/19 07:01:21;;;;;;;2.73;2.50;;;14.50;58.50;;;;;;5164081;27;20523;-34
2021/04/19 07:03:53;;;;;;;2.77;2.57;;;14.40;60.00;;;;;;5165090;27;20500;-37
2021/04/19 07:06:27;;;;;;;3.53;3.10;;;14.40;60.50;;;;;;5161144;27;20452;-36
2021/04/19 07:09:07;;;;;;;3.60;3.30;;;14.30;60.60;;;;;;5166147;27;20450;-35
2021/04/19 07:11:38;;;;;;;3.23;2.73;;;14.30;61.40;;;;;;5158553;27;20574;-35
2021/04/19 07:14:11;;;;;;;3.10;2.90;;;14.10;59.30;;;;;;5168740;27;20448;-34
2021/04/19 07:16:41;;;;;;;5.73;2.63;;;14.10;62.90;;;;;;5168346;27;20903;-36
2021/04/19 07:19:12;;;;;;;3.47;2.90;;;14.00;63.00;;;;;;5169615;27;20499;-34
2021/04/19 07:21:43;;;;;;;3.60;3.20;;;13.90;65.10;;;;;;5168310;27;20448;-33
2021/04/19 07:24:14;;;;;;;3.30;3.00;;;13.90;66.20;;;;;;5167855;27;20467;-35
2021/04/19 07:26:48;;;;;;;3.70;2.70;;;13.90;67.40;;;;;;5167837;27;20455;-37
2021/04/19 07:29:19;;;;;;;3.70;3.40;;;13.80;66.20;;;;;;5168272;27;20823;-35
2021/04/19 07:31:51;;;;;;;3.23;2.87;;;13.70;66.70;;;;;;5168362;27;20432;-34
2021/04/19 07:34:22;;;;;;;3.70;3.40;;;13.70;65.60;;;;;;5169163;27;20458;-36
2021/04/19 07:36:53;;;;;;;3.37;3.07;;;13.70;65.50;;;;;;5165426;27;20471;-35
2021/04/19 07:39:24;;;;;;;3.40;3.10;;;13.70;65.20;;;;;;5164087;27;20465;-34
2021/04/19 07:42:13;;;;;;;6.70;3.70;;;13.60;67.30;;;;;;5167696;27;20471;-36
2021/04/19 07:44:46;;;;;;;3.83;3.40;;;13.60;68.70;;;;;;5169217;27;20550;-35
2021/04/19 07:47:22;;;;;;;4.80;3.00;;;13.60;69.60;;;;;;5167504;27;20960;-35
2021/04/19 07:50:13;;;;;;;3.77;3.00;;;13.60;67.50;;;;;;5168274;27;20451;-35
2021/04/19 07:52:55;;;;;;;3.87;3.57;;;13.50;66.90;;;;;;5166386;27;20904;-37
2021/04/19 07:55:27;;;;;;;3.30;3.10;;;13.50;68.80;;;;;;5166288;27;20452;-35
2021/04/19 07:58:08;;;;;;;3.57;3.27;;;13.40;67.90;;;;;;5167368;27;20467;-33
2021/04/19 08:00:41;;;;;;;3.67;3.37;;;13.40;67.70;;;;;;5165153;27;20451;-37
2021/04/19 08:03:13;;;;;;;4.13;3.20;;;13.30;71.40;;;;;;5168094;27;20428;-36
2021/04/19 08:05:47;;;;;;;3.80;3.20;;;13.30;72.80;;;;;;5166924;27;20472;-36
2021/04/19 08:08:19;;;;;;;4.47;3.90;;;13.10;73.60;;;;;;5167389;27;20452;-37
2021/04/19 08:10:49;;;;;;;4.17;3.80;;;13.00;74.10;;;;;;5166743;27;20448;-37
2021/04/19 08:13:19;;;;;;;5.00;3.27;;;13.10;77.10;;;;;;5165908;27;22047;-33
2021/04/19 08:15:50;;;;;;;5.10;3.20;;;13.00;79.50;;;;;;5161481;27;20448;-32
2021/04/19 08:18:22;;;;;;;3.83;3.53;;;13.00;81.50;;;;;;5166560;27;20543;-35
2021/04/19 08:20:55;;;;;;;4.20;3.87;;;13.00;84.00;;;;;;5164230;27;20465;-33
2021/04/19 08:23:25;;;;;;;3.83;3.43;;;12.90;85.10;;;;;;5165718;27;20505;-33
2021/04/19 08:25:56;;;;;;;3.37;2.93;;;12.90;87.10;;;;;;5165946;27;20483;-33
2021/04/19 08:28:27;;;;;;;3.77;3.47;;;12.80;90.10;;;;;;5163565;27;20476;-36
2021/04/19 08:31:00;;;;;;;3.73;3.33;;;12.70;90.90;;;;;;5162451;27;20440;-34
2021/04/19 08:33:48;;;;;;;3.60;3.30;;;12.60;91.50;;;;;;5166197;27;20459;-35
2021/04/19 08:36:19;;;;;;;3.80;3.40;;;12.60;92.40;;;;;;5166192;27;20469;-35
2021/04/19 08:38:49;;;;;;;3.40;3.10;;;12.50;93.80;;;;;;5165156;27;20516;-36
2021/04/19 08:41:21;;;;;;;3.90;3.60;;;12.50;94.20;;;;;;5164374;27;20892;-33
2021/04/19 08:43:51;;;;;;;3.73;3.43;;;12.40;93.10;;;;;;5165040;27;20776;-35
2021/04/19 08:46:22;;;;;;;5.20;3.67;;;12.40;94.40;;;;;;5166554;27;20443;-36
2021/04/19 08:48:53;;;;;;;4.33;3.40;;;12.30;94.80;;;;;;5160375;27;20988;-38
2021/04/19 08:51:23;;;;;;;3.90;3.60;;;12.10;95.10;;;;;;5165677;27;20524;-36
2021/04/19 08:53:53;;;;;;;4.10;3.50;;;12.10;96.90;;;;;;5166658;27;20432;-34
2021/04/19 08:56:23;;;;;;;3.90;3.60;;;12.10;97.80;;;;;;5165165;27;20615;-35
2021/04/19 08:58:53;;;;;;;8.00;3.40;;;12.00;98.10;;;;;;5150289;27;21271;-31
2021/04/19 09:01:25;;;;;;;3.27;2.97;;;12.00;98.00;;;;;;5165443;27;20452;-34
2021/04/19 09:04:05;;;;;;;4.20;3.57;;;11.90;98.30;;;;;;5165805;27;20444;-35
2021/04/19 09:06:45;;;;;;;5.23;4.17;;;11.90;98.80;;;;;;5166433;27;20802;-33
2021/04/19 09:09:17;;;;;;;4.07;3.83;;;11.90;99.90;;;;;;5166571;27;20455;-37
2021/04/19 09:11:47;;;;;;;4.60;4.07;;;11.80;99.90;;;;;;5156875;27;20493;-34
2021/04/19 09:14:17;;;;;;;4.80;3.67;;;11.80;99.90;;;;;;5159567;27;20447;-37
2021/04/19 09:16:56;;;;;;;3.58;3.30;;;11.60;99.90;;;;;;5162455;27;20634;-37
2021/04/19 09:19:28;;;;;;;8.57;4.13;;;11.60;99.90;;;;;;5151747;27;20213;-38
2021/04/19 09:22:08;;;;;;;4.03;3.63;;;11.60;99.90;;;;;;5165333;27;20260;-34
2021/04/19 09:25:00;;;;;;;4.63;3.72;;;11.60;99.90;;;;;;5150368;27;20486;-33
2021/04/19 09:27:48;;;;;;;4.25;3.92;;;11.50;99.90;;;;;;5164291;27;20190;-38
2021/04/19 09:30:37;;;;;;;6.90;3.35;;;11.50;99.90;;;;;;5166000;27;20224;-33
2021/04/19 09:33:25;;;;;;;3.95;3.72;;;11.40;99.90;;;;;;5164561;27;20288;-35
2021/04/19 09:35:55;;;;;;;4.85;3.70;;;11.30;99.90;;;;;;5165374;27;20191;-36
2021/04/19 09:38:51;;;;;;;4.00;3.60;;;11.30;99.90;;;;;;5164938;27;20199;-35
2021/04/19 09:41:23;;;;;;;4.50;4.10;;;11.30;99.90;;;;;;5162964;27;20202;-35
2021/04/19 09:43:57;;;;;;;3.75;3.45;;;11.20;99.90;;;;;;5165811;27;20213;-35
2021/04/19 09:46:30;;;;;;;3.50;3.30;;;11.20;99.90;;;;;;5164033;27;20212;-36
2021/04/19 09:49:06;;;;;;;6.25;3.70;;;11.20;99.90;;;;;;5165507;27;20683;-35
2021/04/19 09:51:38;;;;;;;4.13;3.72;;;11.10;99.90;;;;;;5165483;27;20186;-36
2021/04/19 09:54:12;;;;;;;4.47;3.83;;;11.10;99.90;;;;;;5165072;27;20195;-35
2021/04/19 09:56:44;;;;;;;3.90;3.60;;;11.00;99.90;;;;;;5163333;27;20213;-36
2021/04/19 09:59:18;;;;;;;5.00;3.75;;;11.00;99.90;;;;;;5164360;27;20207;-32
2021/04/19 10:01:49;;;;;;;4.45;4.05;;;10.90;99.90;;;;;;5164440;27;20646;-35
2021/04/19 10:04:20;;;;;;;5.55;4.20;;;10.90;99.90;;;;;;5165042;27;20266;-37
2021/04/19 10:06:54;;;;;;;4.20;3.90;;;10.90;99.90;;;;;;5164868;27;20186;-37
2021/04/19 10:09:26;;;;;;;10.63;3.78;;;10.90;99.90;;;;;;5165202;27;20202;-32
2021/04/19 10:12:00;;;;;;;5.53;3.67;;;10.80;99.90;;;;;;5150003;27;20290;-37
2021/04/19 10:14:36;;;;;;;7.07;3.65;;;10.70;99.90;;;;;;5164885;27;20930;-30
2021/04/19 10:17:15;;;;;;;4.80;4.40;;;10.70;99.90;;;;;;5164644;27;20243;-31
2021/04/19 10:19:46;;;;;;;5.03;4.10;;;10.70;99.90;;;;;;5163924;27;20190;-35
2021/04/19 10:22:19;;;;;;;4.43;4.03;;;10.70;99.90;;;;;;5164073;27;20183;-36
2021/04/19 10:24:53;;;;;;;4.57;4.18;;;10.60;99.90;;;;;;5164845;27;20341;-37
2021/04/19 10:27:27;;;;;;;3.83;3.55;;;10.60;99.90;;;;;;5163265;27;20200;-36
2021/04/19 10:30:10;;;;;;;4.30;4.00;;;10.60;99.90;;;;;;5164565;27;20199;-36
2021/04/19 10:32:40;;;;;;;5.18;3.80;;;10.60;99.90;;;;;;5147554;27;20231;-34
2021/04/19 10:35:35;;;;;;;8.85;4.00;;;10.50;99.90;;;;;;5163965;27;20205;-36
2021/04/19 10:38:16;;;;;;;8.18;3.85;;;10.50;99.90;;;;;;5164169;27;20408;-37
2021/04/19 10:40:46;;;;;;;5.80;4.40;;;10.40;99.90;;;;;;5163954;27;20194;-34
2021/04/19 10:43:17;;;;;;;4.10;3.80;;;10.30;99.90;;;;;;5163083;27;20234;-34
2021/04/19 10:45:47;;;;;;;4.95;4.40;;;10.30;99.90;;;;;;5164567;27;20935;-34
2021/04/19 10:48:18;;;;;;;4.53;4.03;;;10.30;99.90;;;;;;5163992;27;20202;-36
2021/04/19 10:50:50;;;;;;;5.70;4.30;;;10.20;99.90;;;;;;5164467;27;20202;-35
2021/04/19 10:53:37;;;;;;;6.72;4.60;;;10.20;99.90;;;;;;5164086;27;20223;-37
2021/04/19 10:56:08;;;;;;;4.80;4.00;;;10.20;99.90;;;;;;5164630;27;20199;-37
2021/04/19 10:58:40;;;;;;;7.43;4.90;;;10.10;99.90;;;;;;5162387;27;20626;-34
2021/04/19 11:01:12;;;;;;;5.47;4.07;;;10.00;99.90;;;;;;5163840;27;20657;-33
2021/04/19 11:03:44;;;;;;;5.78;4.35;;;9.90;99.90;;;;;;5164687;27;20202;-34
2021/04/19 11:06:18;;;;;;;4.95;4.47;;;9.90;99.90;;;;;;5164317;27;20271;-35
2021/04/19 11:08:59;;;;;;;5.03;4.13;;;9.90;99.90;;;;;;5164444;27;20267;-37
2021/04/19 11:11:32;;;;;;;4.60;4.30;;;9.90;99.90;;;;;;5163046;27;20243;-38
2021/04/19 11:14:14;;;;;;;5.60;4.32;;;9.80;99.90;;;;;;5164858;27;20237;-35
2021/04/19 11:16:58;;;;;;;5.95;4.45;;;9.80;99.90;;;;;;5158372;27;20203;-31
2021/04/19 11:19:36;;;;;;;6.30;3.88;;;9.70;99.90;;;;;;5147799;27;20208;-38
2021/04/19 11:22:26;;;;;;;5.55;4.50;;;9.70;99.90;;;;;;5163951;27;20697;-34
2021/04/19 11:25:17;;;;;;;4.93;3.65;;;9.70;99.90;;;;;;5163903;27;20217;-37
2021/04/19 11:27:49;;;;;;;6.00;4.10;;;9.70;99.90;;;;;;5162672;27;20560;-35
2021/04/19 11:30:25;;;;;;;4.68;4.28;;;9.70;99.90;;;;;;5163052;27;20195;-37
2021/04/19 11:33:07;;;;;;;4.95;4.38;;;9.60;99.90;;;;;;5163827;27;20195;-36
2021/04/19 11:35:38;;;;;;;6.15;4.68;;;9.40;99.90;;;;;;5164042;27;20201;-35
2021/04/19 11:38:11;;;;;;;7.55;4.53;;;9.50;99.90;;;;;;5163889;27;20235;-37
2021/04/19 11:40:43;;;;;;;5.47;4.45;;;9.40;99.90;;;;;;5161558;27;20219;-36
2021/04/19 11:43:25;;;;;;;6.18;4.50;;;9.40;99.90;;;;;;5162659;27;20396;-31
2021/04/19 11:46:02;;;;;;;5.00;4.50;;;9.40;99.90;;;;;;5164041;27;20263;-34
2021/04/19 11:48:33;;;;;;;6.80;5.28;;;9.40;99.90;;;;;;5163861;27;20998;-36
2021/04/19 11:51:06;;;;;;;5.25;4.63;;;9.30;99.90;;;;;;5162753;27;20202;-36
2021/04/19 11:53:41;;;;;;;7.07;4.18;;;9.20;99.90;;;;;;5162507;27;20232;-37
2021/04/19 11:56:13;;;;;;;5.13;4.63;;;9.20;99.90;;;;;;5164845;27;20213;-34
2021/04/19 11:58:44;;;;;;;5.45;4.43;;;9.20;99.90;;;;;;5166730;27;20194;-35
2021/04/19 12:01:17;;;;;;;5.10;4.63;;;9.10;99.90;;;;;;5167427;27;20202;-35
2021/04/19 12:03:50;;;;;;;5.35;4.85;;;9.20;99.90;;;;;;5167414;27;20194;-32
2021/04/19 12:06:21;;;;;;;5.63;4.90;;;9.20;99.90;;;;;;5165278;27;20222;-32
2021/04/19 12:08:53;;;;;;;4.93;4.53;;;9.10;99.90;;;;;;5168201;27;20190;-32
2021/04/19 12:11:23;;;;;;;7.90;5.53;;;9.10;99.90;;;;;;5165827;27;20267;-34
2021/04/19 12:13:59;;;;;;;6.97;5.32;;;9.00;99.90;;;;;;5165730;27;20274;-32
2021/04/19 12:16:29;;;;;;;9.15;5.88;;;9.10;99.90;;;;;;5166311;27;20296;-34
2021/04/19 12:19:01;;;;;;;6.20;5.60;;;9.10;99.90;;;;;;5165911;27;20206;-37
2021/04/19 12:21:31;;;;;;;7.80;7.07;;;9.10;99.90;;;;;;5166680;27;20227;-33
2021/04/19 12:24:06;;;;;;;9.40;8.20;;;9.10;99.90;;;;;;5167611;27;20199;-36
2021/04/19 12:26:36;;;;;;;9.88;8.98;;;9.20;99.90;;;;;;5166230;27;20217;-31
2021/04/19 12:29:12;;;;;;;9.93;8.90;;;9.20;99.90;;;;;;5167668;27;20209;-35
2021/04/19 12:31:42;;;;;;;10.70;8.35;;;9.30;99.90;;;;;;5166288;27;20267;-32
2021/04/19 12:34:13;;;;;;;9.70;8.80;;;9.30;99.90;;;;;;5160709;27;20247;-34
2021/04/19 12:36:43;;;;;;;11.88;9.95;;;9.20;99.90;;;;;;5165990;27;20309;-33
2021/04/19 12:39:15;;;;;;;10.35;8.60;;;9.20;99.90;;;;;;5167293;27;20199;-36
2021/04/19 12:41:47;;;;;;;9.73;8.82;;;9.20;99.90;;;;;;5165751;27;20230;-37
2021/04/19 12:44:17;;;;;;;9.32;8.48;;;9.10;99.90;;;;;;5150275;27;20206;-34
2021/04/19 12:46:47;;;;;;;12.23;10.27;;;9.10;99.90;;;;;;5166692;27;20278;-37
2021/04/19 12:49:19;;;;;;;10.07;9.07;;;9.10;99.90;;;;;;5166773;27;20588;-35
2021/04/19 12:51:49;;;;;;;10.70;9.70;;;9.20;99.90;;;;;;5166267;27;20313;-37
2021/04/19 12:54:21;;;;;;;12.23;10.95;;;9.10;99.90;;;;;;5166634;27;20194;-35
2021/04/19 12:56:51;;;;;;;11.82;10.23;;;9.10;99.90;;;;;;5165926;27;20231;-35
2021/04/19 12:59:21;;;;;;;13.32;10.80;;;9.10;99.90;;;;;;5165632;27;20220;-37
2021/04/19 13:01:51;;;;;;;10.90;9.90;;;9.00;99.90;;;;;;5166206;27;20199;-33
2021/04/19 13:04:21;;;;;;;12.23;10.70;;;9.00;99.90;;;;;;5166622;27;20198;-35
2021/04/19 13:06:51;;;;;;;11.77;10.65;;;9.00;99.90;;;;;;5165439;27;20294;-35
2021/04/19 13:09:23;;;;;;;12.48;10.77;;;9.10;99.90;;;;;;5166204;27;20198;-35
2021/04/19 13:11:53;;;;;;;12.40;11.13;;;9.20;99.90;;;;;;5164957;27;20198;-34
2021/04/19 13:14:24;;;;;;;11.55;10.18;;;9.10;99.90;;;;;;5166045;27;20259;-35
2021/04/19 13:16:54;;;;;;;13.45;11.00;;;9.10;99.90;;;;;;5165800;27;20199;-35
2021/04/19 13:19:24;;;;;;;12.90;10.75;;;9.00;99.90;;;;;;5165795;27;20202;-37